Time;durP1;ratioP1;P1;durP2;ratioP2;P2;SDS_P1;SDS_P2;PMS_P1;PMS_P2;Temp;Humidity;BMP_temperature;BMP_pressure;BME280_temperature;BME280_humidity;BME280_pressure;Samples;Min_cycle;Max_cycle;Signal;HPM_P1;HPM_P2
2023/11/22 00:01:52;;;;;;;24.73;14.48;;;;;;;5.12;100.00;102309.28;5024990;28;20037;-76
2023/11/22 00:04:18;;;;;;;28.77;14.43;;;;;;;5.07;100.00;102302.63;5044551;28;20033;-76
2023/11/22 00:06:43;;;;;;;27.40;14.18;;;;;;;5.09;100.00;102305.13;5041137;28;20082;-76
2023/11/22 00:09:09;;;;;;;26.08;14.45;;;;;;;5.07;100.00;102310.34;5024577;28;20396;-75
2023/11/22 00:11:35;;;;;;;29.55;14.98;;;;;;;5.04;100.00;102313.06;5057363;28;20033;-76
2023/11/22 00:14:00;;;;;;;25.05;14.27;;;;;;;5.04;100.00;102310.50;5044475;28;20028;-76
2023/11/22 00:16:26;;;;;;;24.10;13.63;;;;;;;5.04;100.00;102313.06;5042457;28;21225;-76
2023/11/22 00:18:51;;;;;;;29.05;15.25;;;;;;;5.02;100.00;102314.09;5059948;28;20041;-76
2023/11/22 00:21:16;;;;;;;25.77;14.82;;;;;;;5.03;100.00;102313.19;5059404;28;20033;-75
2023/11/22 00:23:42;;;;;;;25.40;13.73;;;;;;;4.99;100.00;102315.09;5040002;28;20033;-75
2023/11/22 00:26:08;;;;;;;29.63;14.45;;;;;;;4.99;100.00;102309.94;5039851;28;20083;-75
2023/11/22 00:28:36;;;;;;;32.90;14.82;;;;;;;5.01;100.00;102305.56;5025685;28;20028;-76
2023/11/22 00:31:01;;;;;;;26.00;14.38;;;;;;;5.01;100.00;102307.28;5027264;28;20041;-76
2023/11/22 00:33:27;;;;;;;23.17;12.88;;;;;;;5.02;100.00;102304.63;5050385;28;20044;-75
2023/11/22 00:35:56;;;;;;;24.45;12.85;;;;;;;5.06;100.00;102308.69;5029174;28;20026;-76
2023/11/22 00:38:22;;;;;;;23.38;12.80;;;;;;;5.05;100.00;102301.91;5058819;28;20123;-76
2023/11/22 00:40:48;;;;;;;23.85;12.35;;;;;;;5.05;100.00;102303.66;5027766;28;20167;-75
2023/11/22 00:43:14;;;;;;;22.75;12.82;;;;;;;5.06;100.00;102300.16;5061031;28;20040;-75
2023/11/22 00:45:40;;;;;;;24.77;13.70;;;;;;;5.04;100.00;102302.78;5027102;28;20069;-76
2023/11/22 00:48:05;;;;;;;22.73;13.82;;;;;;;5.09;100.00;102312.84;5027004;28;20028;-76
2023/11/22 00:50:31;;;;;;;25.98;13.63;;;;;;;5.07;100.00;102317.25;5043430;28;20522;-76
2023/11/22 00:52:56;;;;;;;26.75;14.80;;;;;;;5.06;100.00;102323.28;5027696;28;20041;-76
2023/11/22 00:55:21;;;;;;;24.63;13.85;;;;;;;5.08;100.00;102329.16;5040250;28;20033;-76
2023/11/22 00:57:48;;;;;;;24.45;13.68;;;;;;;5.11;100.00;102328.19;5027906;28;20149;-77
2023/11/22 01:00:15;;;;;;;27.60;14.68;;;;;;;5.08;100.00;102318.88;5035430;28;20033;-77
2023/11/22 01:02:40;;;;;;;29.90;15.77;;;;;;;5.11;100.00;102317.91;5049718;28;20039;-77
2023/11/22 01:05:17;;;;;;;27.95;13.95;;;;;;;5.03;100.00;102320.91;5046897;28;20033;-77
2023/11/22 01:07:42;;;;;;;24.20;13.88;;;;;;;5.02;100.00;102322.63;5048328;28;20105;-78
2023/11/22 01:10:08;;;;;;;27.67;14.85;;;;;;;5.04;100.00;102322.53;5047146;28;20033;-76
2023/11/22 01:12:34;;;;;;;26.88;14.15;;;;;;;4.99;100.00;102343.38;5046788;28;20080;-77
2023/11/22 01:14:59;;;;;;;26.77;14.98;;;;;;;4.96;100.00;102330.66;5028346;28;20025;-77
2023/11/22 01:17:25;;;;;;;26.50;14.57;;;;;;;4.96;100.00;102343.53;5047273;28;20444;-77
2023/11/22 01:19:53;;;;;;;30.05;14.75;;;;;;;4.94;100.00;102344.53;5046387;28;20515;-77
2023/11/22 01:22:20;;;;;;;32.50;15.93;;;;;;;4.97;100.00;102349.47;5045937;28;20087;-76
2023/11/22 01:24:45;;;;;;;29.27;15.05;;;;;;;4.97;100.00;102341.78;5019162;28;20455;-77
2023/11/22 01:27:11;;;;;;;26.00;13.70;;;;;;;4.97;100.00;102346.91;5044106;28;20041;-76
2023/11/22 01:29:36;;;;;;;29.58;14.88;;;;;;;4.98;100.00;102353.72;5044094;28;20048;-77
2023/11/22 01:32:02;;;;;;;28.52;15.85;;;;;;;4.93;100.00;102356.53;5029995;28;20084;-76
2023/11/22 01:34:29;;;;;;;26.98;14.95;;;;;;;4.94;100.00;102357.38;5022960;28;20044;-77
2023/11/22 01:36:54;;;;;;;26.48;14.82;;;;;;;4.94;100.00;102368.50;5043196;28;20040;-76
2023/11/22 01:39:20;;;;;;;26.25;14.68;;;;;;;4.93;100.00;102366.00;5028662;28;20031;-76
2023/11/22 01:41:49;;;;;;;29.77;15.98;;;;;;;4.87;100.00;102377.44;5026107;28;20132;-76
2023/11/22 01:44:15;;;;;;;27.77;14.90;;;;;;;4.86;100.00;102380.91;5040462;28;20791;-75
2023/11/22 01:46:42;;;;;;;25.50;13.73;;;;;;;4.86;100.00;102381.75;5045294;28;20033;-75
2023/11/22 01:49:09;;;;;;;29.40;15.10;;;;;;;4.82;100.00;102387.97;5043951;28;20041;-75
2023/11/22 01:51:35;;;;;;;26.85;15.18;;;;;;;4.77;100.00;102395.06;5038357;28;20037;-75
2023/11/22 01:54:01;;;;;;;24.23;13.35;;;;;;;4.80;100.00;102391.50;5053200;28;20056;-76
2023/11/22 01:56:28;;;;;;;24.42;13.77;;;;;;;4.76;100.00;102392.56;5043361;28;20053;-75
2023/11/22 01:58:55;;;;;;;24.58;14.45;;;;;;;4.70;100.00;102400.59;5023665;28;20041;-76
2023/11/22 02:01:20;;;;;;;24.80;12.77;;;;;;;4.65;100.00;102408.53;5043118;28;20079;-76
2023/11/22 02:03:47;;;;;;;24.95;13.88;;;;;;;4.60;100.00;102410.53;5047449;28;20033;-75
2023/11/22 02:06:18;;;;;;;23.50;12.80;;;;;;;4.58;100.00;102417.50;5042776;28;20033;-76
2023/11/22 02:08:44;;;;;;;24.63;15.07;;;;;;;4.58;100.00;102431.16;5028181;28;20028;-77
2023/11/22 02:11:09;;;;;;;26.33;15.35;;;;;;;4.51;100.00;102441.81;5027640;28;20087;-75
2023/11/22 02:13:38;;;;;;;24.45;13.75;;;;;;;4.41;100.00;102436.31;5033267;28;20387;-76
2023/11/22 02:16:03;;;;;;;24.45;13.30;;;;;;;4.40;100.00;102439.78;5039823;28;20384;-76
2023/11/22 02:18:29;;;;;;;29.25;14.57;;;;;;;4.33;100.00;102428.13;5039404;28;20040;-76
2023/11/22 02:20:56;;;;;;;28.98;14.63;;;;;;;4.29;100.00;102425.75;5039593;28;20025;-76
2023/11/22 02:23:21;;;;;;;28.88;15.32;;;;;;;4.27;100.00;102421.56;5041183;28;20028;-77
2023/11/22 02:25:47;;;;;;;26.52;15.02;;;;;;;4.13;100.00;102429.94;5024917;28;20040;-75
2023/11/22 02:28:12;;;;;;;28.08;13.10;;;;;;;4.12;100.00;102424.88;5030257;28;20037;-76
2023/11/22 02:30:38;;;;;;;25.38;14.40;;;;;;;4.10;100.00;102425.78;5061384;28;20029;-76
2023/11/22 02:33:06;;;;;;;32.25;14.68;;;;;;;4.07;100.00;102431.06;5049904;28;20561;-75
2023/11/22 02:35:32;;;;;;;25.85;14.07;;;;;;;4.07;100.00;102435.38;5044209;28;20033;-76
2023/11/22 02:37:59;;;;;;;27.58;15.18;;;;;;;4.03;100.00;102424.44;5035386;28;20125;-76
2023/11/22 02:40:25;;;;;;;27.83;15.40;;;;;;;4.01;100.00;102428.81;5043422;28;20960;-76
2023/11/22 02:42:52;;;;;;;27.35;14.55;;;;;;;3.99;100.00;102430.59;5044559;28;20033;-75
2023/11/22 02:45:21;;;;;;;27.17;14.95;;;;;;;3.95;100.00;102429.06;5020836;28;20128;-76
2023/11/22 02:47:47;;;;;;;29.73;14.68;;;;;;;3.91;100.00;102422.44;5027557;28;20537;-75
2023/11/22 02:50:13;;;;;;;32.80;14.73;;;;;;;3.90;100.00;102423.34;5040641;28;20033;-76
2023/11/22 02:52:39;;;;;;;34.97;16.95;;;;;;;3.84;100.00;102428.75;5042767;28;20039;-76
2023/11/22 02:55:05;;;;;;;27.73;14.63;;;;;;;3.78;100.00;102423.91;5044565;28;20029;-76
2023/11/22 02:57:31;;;;;;;34.28;14.75;;;;;;;3.75;100.00;102442.00;5046428;28;20456;-76
2023/11/22 02:59:57;;;;;;;36.60;16.75;;;;;;;3.71;100.00;102443.88;5036587;28;20064;-76
2023/11/22 03:02:23;;;;;;;31.67;17.52;;;;;;;3.69;100.00;102443.97;5022402;28;20453;-76
2023/11/22 03:04:49;;;;;;;40.92;17.92;;;;;;;3.70;100.00;102445.63;5029013;28;20034;-76
2023/11/22 03:07:15;;;;;;;41.05;18.60;;;;;;;3.62;100.00;102450.28;5058031;28;20111;-76
2023/11/22 03:09:43;;;;;;;34.92;18.63;;;;;;;3.64;100.00;102460.50;5041185;28;20124;-76
2023/11/22 03:12:08;;;;;;;35.53;17.55;;;;;;;3.60;100.00;102467.50;5044899;28;20032;-76
2023/11/22 03:14:35;;;;;;;38.58;19.13;;;;;;;3.61;100.00;102473.44;5039453;28;20037;-76
2023/11/22 03:17:01;;;;;;;38.58;18.60;;;;;;;3.57;100.00;102472.75;5060584;28;20158;-76
2023/11/22 03:19:26;;;;;;;37.05;18.10;;;;;;;3.48;100.00;102475.72;5039469;28;20673;-76
2023/11/22 03:21:52;;;;;;;40.30;18.10;;;;;;;3.42;100.00;102470.88;5039982;28;20032;-76
2023/11/22 03:24:17;;;;;;;39.00;18.38;;;;;;;3.41;100.00;102474.34;5027261;28;20032;-76
2023/11/22 03:26:43;;;;;;;36.33;17.92;;;;;;;3.39;100.00;102468.44;5042649;28;20083;-75
2023/11/22 03:29:08;;;;;;;37.00;18.60;;;;;;;3.39;100.00;102476.13;5043657;28;20776;-75
2023/11/22 03:31:34;;;;;;;33.65;17.13;;;;;;;3.37;100.00;102471.09;5024411;28;20040;-76
2023/11/22 03:33:59;;;;;;;40.17;19.27;;;;;;;3.37;100.00;102468.53;5058895;28;20037;-76
2023/11/22 03:36:27;;;;;;;42.88;20.35;;;;;;;3.37;100.00;102465.97;5040183;28;20053;-76
2023/11/22 03:38:53;;;;;;;42.03;19.67;;;;;;;3.36;100.00;102477.13;5042473;28;20404;-76
2023/11/22 03:41:18;;;;;;;42.95;20.13;;;;;;;3.34;100.00;102483.22;5040543;28;20040;-76
2023/11/22 03:43:44;;;;;;;40.03;18.20;;;;;;;3.31;100.00;102487.59;5038564;28;20559;-76
2023/11/22 03:46:11;;;;;;;48.20;22.77;;;;;;;3.30;100.00;102480.78;5045482;28;20033;-76
2023/11/22 03:48:38;;;;;;;41.53;19.80;;;;;;;3.24;100.00;102483.63;5026062;28;20044;-75
2023/11/22 03:51:03;;;;;;;46.42;19.25;;;;;;;3.21;100.00;102493.19;5018048;28;20049;-76
2023/11/22 03:53:29;;;;;;;47.75;21.35;;;;;;;3.21;100.00;102483.75;5044653;28;20032;-75
2023/11/22 03:55:54;;;;;;;42.53;19.15;;;;;;;3.16;100.00;102475.41;5026596;28;20029;-76
2023/11/22 03:58:20;;;;;;;42.20;19.65;;;;;;;3.08;100.00;102474.94;5039425;28;20133;-75
2023/11/22 04:00:46;;;;;;;51.08;20.40;;;;;;;3.08;100.00;102492.88;5037437;28;20135;-76
2023/11/22 04:03:12;;;;;;;51.88;20.10;;;;;;;3.12;100.00;102496.97;5041338;28;20487;-75
2023/11/22 04:05:37;;;;;;;46.00;19.92;;;;;;;3.02;100.00;102501.66;5038139;28;20052;-75
2023/11/22 04:08:03;;;;;;;43.85;21.55;;;;;;;3.00;100.00;102500.06;5024742;28;20116;-75
2023/11/22 04:10:28;;;;;;;42.25;21.13;;;;;;;2.98;100.00;102515.50;5043006;28;20426;-75
2023/11/22 04:12:54;;;;;;;44.10;19.45;;;;;;;2.98;100.00;102519.81;5028566;28;20033;-76
2023/11/22 04:15:19;;;;;;;44.17;21.40;;;;;;;2.97;100.00;102525.81;5047796;28;20040;-75
2023/11/22 04:17:45;;;;;;;47.58;21.35;;;;;;;2.93;100.00;102527.66;5044281;28;20036;-75
2023/11/22 04:20:10;;;;;;;49.67;21.08;;;;;;;2.90;100.00;102536.34;5044831;28;20044;-76
2023/11/22 04:22:45;;;;;;;44.15;20.67;;;;;;;2.90;100.00;102543.16;5046516;28;20037;-76
2023/11/22 04:25:13;;;;;;;45.53;20.23;;;;;;;2.89;100.00;102557.72;5039088;28;20051;-75
2023/11/22 04:27:39;;;;;;;46.20;20.38;;;;;;;2.87;100.00;102554.38;5047405;28;20546;-74
2023/11/22 04:30:13;;;;;;;41.30;19.63;;;;;;;2.89;100.00;102556.88;5047285;28;20538;-76
2023/11/22 04:32:38;;;;;;;43.90;19.38;;;;;;;2.88;100.00;102558.63;5036717;28;20119;-75
2023/11/22 04:35:04;;;;;;;43.83;21.20;;;;;;;2.88;100.00;102560.34;5035416;28;20045;-76
2023/11/22 04:37:32;;;;;;;41.42;20.05;;;;;;;2.86;100.00;102557.84;5057302;28;20025;-76
2023/11/22 04:40:01;;;;;;;37.72;19.15;;;;;;;2.84;100.00;102549.38;5047530;28;20851;-75
2023/11/22 04:42:27;;;;;;;45.55;20.40;;;;;;;2.86;100.00;102551.88;5044067;28;20036;-75
2023/11/22 04:44:54;;;;;;;44.08;20.30;;;;;;;2.87;100.00;102556.94;5042778;28;20052;-75
2023/11/22 04:47:19;;;;;;;45.35;19.63;;;;;;;2.83;100.00;102560.53;5049747;28;20033;-75
2023/11/22 04:49:44;;;;;;;39.22;19.23;;;;;;;2.78;100.00;102557.31;5040038;28;20450;-76
2023/11/22 04:52:10;;;;;;;37.78;18.95;;;;;;;2.81;100.00;102559.78;5041783;28;20037;-76
2023/11/22 04:54:35;;;;;;;41.13;19.52;;;;;;;2.77;100.00;102549.69;5063205;28;20037;-75
2023/11/22 04:57:01;;;;;;;35.30;17.98;;;;;;;2.77;100.00;102554.81;5042735;28;20083;-75
2023/11/22 04:59:26;;;;;;;42.08;20.02;;;;;;;2.80;100.00;102557.25;5039304;28;20627;-76
2023/11/22 05:01:52;;;;;;;38.88;18.70;;;;;;;2.78;100.00;102562.44;5048495;28;20029;-75
2023/11/22 05:04:18;;;;;;;44.90;20.83;;;;;;;2.70;100.00;102565.31;5062887;28;20036;-74
2023/11/22 05:06:45;;;;;;;37.72;18.65;;;;;;;2.66;100.00;102570.63;5042760;28;20040;-75
2023/11/22 05:09:10;;;;;;;43.85;19.08;;;;;;;2.70;100.00;102564.50;5023365;28;20033;-75
2023/11/22 05:11:36;;;;;;;39.35;18.65;;;;;;;2.58;100.00;102558.13;5045558;28;20510;-75
2023/11/22 05:14:02;;;;;;;33.97;16.65;;;;;;;2.51;100.00;102559.28;5044563;28;20048;-76
2023/11/22 05:16:27;;;;;;;38.55;18.67;;;;;;;2.48;100.00;102562.75;5049215;28;20597;-75
2023/11/22 05:18:53;;;;;;;41.78;19.88;;;;;;;2.47;100.00;102570.53;5029771;28;20033;-76
2023/11/22 05:21:18;;;;;;;39.90;18.95;;;;;;;2.47;100.00;102581.59;5039296;28;20419;-76
2023/11/22 05:23:44;;;;;;;39.63;19.00;;;;;;;2.39;100.00;102580.22;5041693;28;20049;-75
2023/11/22 05:26:09;;;;;;;40.53;19.27;;;;;;;2.35;100.00;102584.63;5045357;28;20184;-76
2023/11/22 05:28:35;;;;;;;38.90;19.42;;;;;;;2.34;100.00;102590.66;5055817;28;20029;-76
2023/11/22 05:31:00;;;;;;;41.92;20.50;;;;;;;2.32;100.00;102584.75;5026315;28;20029;-75
2023/11/22 05:33:25;;;;;;;49.95;23.17;;;;;;;2.33;100.00;102596.66;5048379;28;20476;-75
2023/11/22 05:35:51;;;;;;;47.85;23.05;;;;;;;2.31;100.00;102595.88;5045934;28;20543;-76
2023/11/22 05:38:16;;;;;;;43.50;20.90;;;;;;;2.30;100.00;102601.91;5043106;28;20036;-76
2023/11/22 05:40:43;;;;;;;41.13;19.02;;;;;;;2.28;100.00;102589.16;5042881;28;20044;-75
2023/11/22 05:43:09;;;;;;;48.05;22.30;;;;;;;2.32;100.00;102595.00;5042714;28;20048;-76
2023/11/22 05:45:35;;;;;;;42.13;21.50;;;;;;;2.30;100.00;102595.06;5043716;28;20534;-75
2023/11/22 05:48:01;;;;;;;41.05;20.65;;;;;;;2.31;100.00;102589.03;5047751;28;20082;-75
2023/11/22 05:50:26;;;;;;;33.42;17.27;;;;;;;2.29;100.00;102590.81;5043600;28;20039;-74
2023/11/22 05:52:52;;;;;;;39.53;19.15;;;;;;;2.29;100.00;102595.94;5027701;28;20086;-75
2023/11/22 05:55:18;;;;;;;38.63;18.95;;;;;;;2.26;100.00;102590.94;5046402;28;20040;-76
2023/11/22 05:57:43;;;;;;;42.65;20.05;;;;;;;2.28;100.00;102584.03;5047371;28;20045;-76
2023/11/22 06:00:10;;;;;;;41.65;20.65;;;;;;;2.32;100.00;102595.81;5023620;28;20043;-76
2023/11/22 06:02:37;;;;;;;35.92;18.17;;;;;;;2.26;100.00;102590.09;5046941;28;20514;-76
2023/11/22 06:05:03;;;;;;;41.35;17.85;;;;;;;2.23;100.00;102590.22;5045977;28;20642;-75
2023/11/22 06:07:29;;;;;;;37.42;17.42;;;;;;;2.20;100.00;102591.16;5042471;28;20041;-76
2023/11/22 06:09:54;;;;;;;38.22;19.20;;;;;;;2.19;100.00;102596.38;5041763;28;20052;-75
2023/11/22 06:12:20;;;;;;;40.92;18.95;;;;;;;2.17;100.00;102593.00;5044007;28;20040;-75
2023/11/22 06:14:46;;;;;;;37.47;18.30;;;;;;;2.14;100.00;102597.34;5041662;28;20044;-76
2023/11/22 06:17:12;;;;;;;43.17;18.20;;;;;;;2.10;100.00;102600.91;5043689;28;20537;-75
2023/11/22 06:19:38;;;;;;;38.45;19.23;;;;;;;2.11;100.00;102596.63;5026665;28;20142;-75
2023/11/22 06:22:03;;;;;;;34.65;17.92;;;;;;;2.10;100.00;102602.66;5044371;28;20043;-75
2023/11/22 06:24:29;;;;;;;38.58;18.05;;;;;;;2.09;100.00;102608.63;5041660;28;20098;-76
2023/11/22 06:26:54;;;;;;;36.17;17.63;;;;;;;2.06;100.00;102607.03;5032416;28;20036;-76
2023/11/22 06:29:20;;;;;;;41.08;18.45;;;;;;;2.02;100.00;102610.59;5028060;28;20029;-75
2023/11/22 06:31:46;;;;;;;36.70;18.10;;;;;;;2.02;100.00;102627.69;5044129;28;20037;-75
2023/11/22 06:34:12;;;;;;;38.05;18.48;;;;;;;1.97;100.00;102620.16;5042424;28;20548;-75
2023/11/22 06:36:37;;;;;;;35.58;16.63;;;;;;;1.95;100.00;102637.31;5044504;28;20035;-75
2023/11/22 06:39:04;;;;;;;37.28;16.50;;;;;;;1.94;100.00;102641.59;5045758;28;20601;-76
2023/11/22 06:41:30;;;;;;;33.42;16.88;;;;;;;1.92;100.00;102633.16;5045561;28;20131;-75
2023/11/22 06:43:55;;;;;;;34.08;17.48;;;;;;;1.92;100.00;102637.41;5031822;28;20025;-76
2023/11/22 06:46:22;;;;;;;43.13;21.17;;;;;;;1.90;100.00;102639.19;5045880;28;20037;-76
2023/11/22 06:48:49;;;;;;;37.17;18.75;;;;;;;1.88;100.00;102638.41;5046594;28;20435;-75
2023/11/22 06:51:15;;;;;;;38.28;17.38;;;;;;;1.80;100.00;102630.19;5041511;28;20037;-75
2023/11/22 06:53:40;;;;;;;35.03;18.33;;;;;;;1.76;100.00;102629.44;5044252;28;20044;-75
2023/11/22 06:56:06;;;;;;;35.05;16.45;;;;;;;1.75;100.00;102626.06;5041529;28;20033;-75
2023/11/22 06:58:31;;;;;;;33.20;14.65;;;;;;;1.73;100.00;102627.84;5044078;28;20032;-76
2023/11/22 07:00:57;;;;;;;30.38;14.75;;;;;;;1.73;100.00;102622.72;5041877;28;20425;-75
2023/11/22 07:03:22;;;;;;;34.35;15.57;;;;;;;1.74;100.00;102626.94;5027804;28;20024;-76
2023/11/22 07:05:48;;;;;;;33.45;16.20;;;;;;;1.72;100.00;102631.28;5055974;28;20451;-75
2023/11/22 07:08:16;;;;;;;34.78;16.48;;;;;;;1.71;100.00;102637.31;5038895;28;20410;-76
2023/11/22 07:10:41;;;;;;;31.17;15.60;;;;;;;1.69;100.00;102644.16;5024886;28;20081;-75
2023/11/22 07:13:07;;;;;;;35.53;16.27;;;;;;;1.69;100.00;102656.13;5040716;28;20033;-75
2023/11/22 07:15:32;;;;;;;37.30;18.10;;;;;;;1.69;100.00;102667.19;5045471;28;20406;-76
2023/11/22 07:17:58;;;;;;;39.40;17.70;;;;;;;1.69;100.00;102676.59;5019020;28;20086;-76
2023/11/22 07:20:24;;;;;;;35.25;16.75;;;;;;;1.68;100.00;102680.88;5058980;28;20399;-76
2023/11/22 07:22:54;;;;;;;35.17;17.00;;;;;;;1.70;100.00;102691.88;5043096;28;20036;-75
2023/11/22 07:25:24;;;;;;;42.08;17.85;;;;;;;1.71;100.00;102692.72;5042312;28;20041;-76
2023/11/22 07:27:51;;;;;;;38.35;18.55;;;;;;;1.73;100.00;102701.16;5047129;28;20029;-76
2023/11/22 07:30:19;;;;;;;39.65;16.90;;;;;;;1.73;100.00;102703.72;5026748;28;20195;-74
2023/11/22 07:32:45;;;;;;;38.47;15.85;;;;;;;1.73;100.00;102703.72;5029237;28;20818;-75
2023/11/22 07:35:12;;;;;;;38.35;17.48;;;;;;;1.74;100.00;102701.13;5040077;28;20044;-76
2023/11/22 07:37:42;;;;;;;34.47;17.10;;;;;;;1.74;100.00;102695.19;5029041;28;20024;-75
2023/11/22 07:40:09;;;;;;;36.50;17.58;;;;;;;1.75;100.00;102682.34;5041971;28;20587;-76
2023/11/22 07:42:36;;;;;;;35.90;17.77;;;;;;;1.77;100.00;102695.06;5042042;28;20041;-79
2023/11/22 07:45:01;;;;;;;35.83;16.15;;;;;;;1.83;100.00;102684.63;5027204;28;20684;-76
2023/11/22 07:47:28;;;;;;;46.05;21.10;;;;;;;1.88;100.00;102679.34;5045492;28;20646;-76
2023/11/22 07:49:55;;;;;;;47.70;19.75;;;;;;;1.95;100.00;102675.69;5037634;28;20083;-75
2023/11/22 07:52:21;;;;;;;63.20;21.25;;;;;;;1.98;100.00;102674.72;5041145;28;20498;-75
2023/11/22 07:54:47;;;;;;;42.88;19.17;;;;;;;1.98;100.00;102669.63;5041590;28;20037;-76
2023/11/22 07:57:13;;;;;;;44.70;19.25;;;;;;;1.97;100.00;102667.97;5026627;28;20029;-75
2023/11/22 07:59:39;;;;;;;41.90;17.55;;;;;;;1.99;100.00;102664.44;5058650;28;20033;-74
2023/11/22 08:02:10;;;;;;;41.08;18.42;;;;;;;1.97;100.00;102660.28;5044960;28;20037;-75
2023/11/22 08:04:36;;;;;;;42.73;18.27;;;;;;;1.95;100.00;102671.41;5041953;28;20053;-75
2023/11/22 08:07:01;;;;;;;52.67;18.63;;;;;;;1.92;100.00;102668.97;5059255;28;20102;-76
2023/11/22 08:09:32;;;;;;;41.33;17.20;;;;;;;1.93;100.00;102664.69;5041059;28;20510;-76
2023/11/22 08:11:59;;;;;;;44.70;17.33;;;;;;;1.92;100.00;102668.09;5030139;28;20037;-76
2023/11/22 08:14:27;;;;;;;36.47;16.50;;;;;;;1.90;100.00;102670.75;5044101;28;20037;-75
2023/11/22 08:16:53;;;;;;;40.10;17.02;;;;;;;1.86;100.00;102671.72;5043172;28;20519;-75
2023/11/22 08:19:19;;;;;;;43.80;16.92;;;;;;;1.82;100.00;102672.72;5036538;28;20036;-75
2023/11/22 08:21:44;;;;;;;32.88;15.68;;;;;;;1.83;100.00;102678.66;5042017;28;20037;-76
2023/11/22 08:24:12;;;;;;;38.17;16.73;;;;;;;1.84;100.00;102678.63;5044742;28;20040;-76
2023/11/22 08:26:38;;;;;;;36.55;16.05;;;;;;;1.82;100.00;102693.19;5038157;28;20536;-76
2023/11/22 08:29:04;;;;;;;35.15;17.33;;;;;;;1.76;100.00;102685.72;5022832;28;20057;-76
2023/11/22 08:31:30;;;;;;;31.17;14.85;;;;;;;1.73;100.00;102688.38;5035947;28;20111;-75
2023/11/22 08:33:56;;;;;;;43.08;16.92;;;;;;;1.72;100.00;102692.66;5045376;28;20039;-76
2023/11/22 08:36:23;;;;;;;35.85;15.30;;;;;;;1.58;100.00;102704.25;5040859;28;20036;-76
2023/11/22 08:38:49;;;;;;;35.58;15.63;;;;;;;1.54;100.00;102722.28;5043879;28;20029;-75
2023/11/22 08:41:15;;;;;;;32.28;15.32;;;;;;;1.59;100.00;102724.66;5025421;28;20037;-75
2023/11/22 08:43:41;;;;;;;40.83;15.85;;;;;;;1.62;100.00;102742.47;4997636;28;20048;-76
2023/11/22 08:46:07;;;;;;;25.95;13.73;;;;;;;1.71;100.00;102751.53;5039535;28;20713;-74
2023/11/22 08:48:33;;;;;;;28.90;15.18;;;;;;;1.77;100.00;102765.84;5043187;28;20087;-76
2023/11/22 08:51:01;;;;;;;35.47;15.82;;;;;;;1.75;100.00;102764.19;5043707;28;20044;-76
2023/11/22 08:53:26;;;;;;;32.88;15.52;;;;;;;1.82;100.00;102758.88;5043248;28;20402;-75
2023/11/22 08:55:54;;;;;;;28.17;14.60;;;;;;;1.87;100.00;102752.72;5043885;28;20049;-74
2023/11/22 08:58:21;;;;;;;25.70;13.07;;;;;;;1.89;100.00;102757.78;5046074;28;20060;-75
2023/11/22 09:00:46;;;;;;;34.35;13.93;;;;;;;1.94;100.00;102756.75;5048581;28;20032;-75
2023/11/22 09:03:12;;;;;;;28.58;15.23;;;;;;;1.95;100.00;102760.13;5048747;28;20083;-76
2023/11/22 09:05:46;;;;;;;29.65;15.10;;;;;;;1.97;100.00;102765.19;5048526;28;20045;-75
2023/11/22 09:08:14;;;;;;;33.30;14.95;;;;;;;2.02;100.00;102766.72;5045522;28;20036;-76
2023/11/22 09:10:41;;;;;;;26.95;14.10;;;;;;;2.08;100.00;102756.25;5046192;28;20037;-75
2023/11/22 09:13:07;;;;;;;38.60;15.43;;;;;;;2.17;100.00;102742.31;5039251;28;20482;-75
2023/11/22 09:15:33;;;;;;;42.22;16.33;;;;;;;2.20;100.00;102744.75;5043219;28;20191;-75
2023/11/22 09:17:59;;;;;;;32.83;15.50;;;;;;;2.30;100.00;102728.19;5043616;28;20116;-75
2023/11/22 09:20:25;;;;;;;30.35;14.60;;;;;;;2.41;100.00;102738.06;5042584;28;20393;-76
2023/11/22 09:22:52;;;;;;;34.28;16.45;;;;;;;2.50;100.00;102742.81;5026229;28;20121;-75
2023/11/22 09:25:20;;;;;;;26.15;14.50;;;;;;;2.54;100.00;102740.97;5020085;28;20091;-75
2023/11/22 09:27:48;;;;;;;29.02;14.02;;;;;;;2.62;100.00;102740.69;5009426;28;20041;-76
2023/11/22 09:30:31;;;;;;;27.05;13.75;;;;;;;2.70;100.00;102748.94;5017159;28;20523;-75
2023/11/22 09:32:57;;;;;;;29.42;15.52;;;;;;;2.66;100.00;102748.22;5012048;28;20037;-75
2023/11/22 09:35:23;;;;;;;27.02;13.68;;;;;;;2.68;100.00;102735.38;5024683;28;20033;-77
2023/11/22 09:37:48;;;;;;;29.17;14.68;;;;;;;2.73;100.00;102743.69;5025668;28;20033;-76
2023/11/22 09:40:17;;;;;;;34.65;16.25;;;;;;;2.76;100.00;102728.22;5022582;28;20029;-75
2023/11/22 09:42:46;;;;;;;30.13;15.38;;;;;;;2.89;100.00;102719.16;5003024;28;20072;-76
2023/11/22 09:45:12;;;;;;;31.63;15.20;;;;;;;2.97;100.00;102718.88;5022953;28;20381;-76
2023/11/22 09:47:38;;;;;;;26.60;14.43;;;;;;;3.02;100.00;102728.94;5027615;28;20060;-75
2023/11/22 09:50:05;;;;;;;32.17;14.68;;;;;;;3.06;100.00;102738.19;5022801;28;20488;-75
2023/11/22 09:52:36;;;;;;;37.47;16.75;;;;;;;3.12;100.00;102743.06;5022317;28;20041;-76
2023/11/22 09:55:02;;;;;;;34.60;15.98;;;;;;;3.16;100.00;102733.53;5040470;28;20449;-76
2023/11/22 09:57:30;;;;;;;30.77;15.30;;;;;;;3.19;100.00;102736.81;5021421;28;20044;-74
2023/11/22 09:59:57;;;;;;;32.72;15.27;;;;;;;3.20;100.00;102738.50;5011182;28;20566;-75
2023/11/22 10:02:26;;;;;;;33.70;16.13;;;;;;;3.37;100.00;102739.53;5024150;28;20040;-75
2023/11/22 10:04:53;;;;;;;33.45;16.13;;;;;;;3.46;100.00;102729.72;5026023;28;20049;-74
2023/11/22 10:07:18;;;;;;;38.53;18.27;;;;;;;3.37;100.00;102726.72;5006893;28;20060;-75
2023/11/22 10:09:44;;;;;;;31.15;15.45;;;;;;;3.26;100.00;102738.25;5022092;28;20041;-75
2023/11/22 10:12:11;;;;;;;30.95;15.60;;;;;;;3.23;100.00;102737.53;5023593;28;20083;-74
2023/11/22 10:14:38;;;;;;;29.92;14.98;;;;;;;3.23;100.00;102737.53;5023521;28;20075;-75
2023/11/22 10:17:05;;;;;;;30.80;15.75;;;;;;;3.23;100.00;102746.03;5005259;28;20037;-76
2023/11/22 10:19:31;;;;;;;31.45;15.88;;;;;;;3.30;100.00;102747.47;5019186;28;20625;-75
2023/11/22 10:22:04;;;;;;;32.33;16.23;;;;;;;3.33;100.00;102741.38;5022081;28;20022;-75
2023/11/22 10:24:33;;;;;;;37.20;17.48;;;;;;;3.40;100.00;102741.97;5023389;28;20212;-76
2023/11/22 10:26:59;;;;;;;38.83;18.60;;;;;;;3.40;100.00;102731.72;5039139;28;20054;-75
2023/11/22 10:29:25;;;;;;;35.28;17.70;;;;;;;3.40;100.00;102739.41;5022158;28;20451;-75
2023/11/22 10:31:51;;;;;;;38.20;19.05;;;;;;;3.40;100.00;102729.16;5023086;28;20545;-74
2023/11/22 10:34:23;;;;;;;34.88;18.10;;;;;;;3.39;100.00;102733.47;5022700;28;20033;-75
2023/11/22 10:36:53;;;;;;;32.20;16.83;;;;;;;3.38;100.00;102741.22;5046624;28;20605;-75
2023/11/22 10:39:22;;;;;;;37.83;18.05;;;;;;;3.39;100.00;102742.88;5043063;28;20064;-74
2023/11/22 10:41:50;;;;;;;33.22;16.55;;;;;;;3.39;100.00;102737.72;5045679;28;20036;-74
2023/11/22 10:44:16;;;;;;;32.35;15.32;;;;;;;3.49;100.00;102736.47;5041117;28;20047;-75
2023/11/22 10:46:41;;;;;;;32.78;15.73;;;;;;;3.55;100.00;102736.22;5062426;28;20037;-74
2023/11/22 10:49:07;;;;;;;28.27;15.43;;;;;;;3.63;100.00;102734.16;5045871;28;20033;-75
2023/11/22 10:51:34;;;;;;;32.58;16.73;;;;;;;3.69;100.00;102733.06;5036944;28;20057;-74
2023/11/22 10:54:03;;;;;;;35.10;17.30;;;;;;;3.75;100.00;102735.41;5044409;28;20033;-75
2023/11/22 10:56:33;;;;;;;32.20;16.58;;;;;;;3.74;100.00;102740.59;5035302;28;20040;-75
2023/11/22 10:59:02;;;;;;;34.72;17.75;;;;;;;3.75;100.00;102749.94;5024030;28;20099;-75
2023/11/22 11:01:31;;;;;;;42.33;20.58;;;;;;;3.78;100.00;102750.66;5021361;28;20049;-75
2023/11/22 11:04:11;;;;;;;39.58;17.38;;;;;;;3.82;100.00;102751.38;5021832;28;20037;-74
2023/11/22 11:06:37;;;;;;;35.40;16.52;;;;;;;3.87;100.00;102749.44;5037627;28;20132;-74